Time;durP1;ratioP1;P1;durP2;ratioP2;P2;SDS_P1;SDS_P2;PMS_P1;PMS_P2;Temp;Humidity;BMP_temperature;BMP_pressure;BME280_temperature;BME280_humidity;BME280_pressure;Samples;Min_cycle;Max_cycle;Signal;HPM_P1;HPM_P2
2022/03/27 00:00:40;;;;;;;1999.90;999.90;;;;;;;7.40;46.86;102687.13;4917981;28;97527;-73
2022/03/27 00:03:08;;;;;;;1999.90;999.90;;;;;;;7.37;47.32;102687.84;4914797;28;98237;-71
2022/03/27 00:05:36;;;;;;;1999.90;999.90;;;;;;;7.34;47.47;102687.66;4916510;28;99901;-70
2022/03/27 00:08:04;;;;;;;1999.90;999.90;;;;;;;7.33;47.23;102682.28;4913584;28;98792;-70
2022/03/27 00:11:23;;;;;;;1999.90;999.90;;;;;;;7.33;47.29;102685.81;4918529;28;97736;-72
2022/03/27 00:13:23;;;;;;;1999.90;999.90;;;;;;;7.31;47.47;102698.03;4918580;28;97764;-71
2022/03/27 00:15:50;;;;;;;1999.90;999.90;;;;;;;7.31;46.89;102698.03;4916348;28;99402;-71
2022/03/27 00:18:18;;;;;;;1999.90;999.90;;;;;;;7.33;47.06;102690.22;4918804;28;97632;-75
2022/03/27 00:20:46;;;;;;;1999.90;999.90;;;;;;;7.84;47.27;102697.09;4917521;28;98260;-73
2022/03/27 00:23:13;;;;;;;1999.90;999.90;;;;;;;7.56;47.58;102701.50;4901676;28;98116;-72
2022/03/27 00:25:41;;;;;;;1999.90;999.90;;;;;;;7.49;47.62;102703.66;4915017;28;99698;-71
2022/03/27 00:28:09;;;;;;;1999.90;999.90;;;;;;;7.44;47.36;102700.69;4916339;28;98946;-71
2022/03/27 00:30:38;;;;;;;1999.90;999.90;;;;;;;7.42;47.42;102697.03;4900367;28;98832;-71
2022/03/27 00:33:06;;;;;;;1999.90;999.90;;;;;;;7.39;47.47;102686.22;4918563;28;97192;-72
2022/03/27 00:35:34;;;;;;;1999.90;999.90;;;;;;;7.38;47.48;102694.06;4917416;28;98212;-74
2022/03/27 00:38:01;;;;;;;1999.90;999.90;;;;;;;7.35;47.52;102688.56;4917274;28;96991;-72
2022/03/27 00:40:29;;;;;;;1999.90;999.90;;;;;;;7.31;47.50;102700.69;4917585;28;97170;-73
2022/03/27 00:42:57;;;;;;;1999.90;999.90;;;;;;;7.29;47.68;102704.97;4916377;28;97474;-71
2022/03/27 00:45:27;;;;;;;1999.90;999.90;;;;;;;7.27;47.40;102696.03;4918530;28;97867;-73
2022/03/27 00:47:56;;;;;;;1999.90;999.90;;;;;;;7.27;47.65;102701.34;4913934;28;98767;-72
2022/03/27 00:50:24;;;;;;;1999.90;999.90;;;;;;;7.24;47.94;102699.38;4916460;28;96734;-71
2022/03/27 00:52:51;;;;;;;1999.90;999.90;;;;;;;7.22;47.59;102693.06;4917345;28;97541;-74
2022/03/27 00:55:19;;;;;;;1999.90;999.90;;;;;;;7.19;47.99;102686.66;4915129;28;99729;-73
2022/03/27 00:57:47;;;;;;;1999.90;999.90;;;;;;;7.15;48.03;102688.19;4913634;28;99687;-73
2022/03/27 01:00:21;;;;;;;1999.90;999.90;;;;;;;7.11;48.00;102687.88;4909786;28;99305;-72
2022/03/27 01:02:50;;;;;;;1999.90;999.90;;;;;;;7.09;47.98;102686.91;4917009;28;97940;-71
2022/03/27 01:05:21;;;;;;;1999.90;999.90;;;;;;;7.07;47.88;102683.22;4906661;28;98840;-72
2022/03/27 01:07:49;;;;;;;1999.90;999.90;;;;;;;7.04;48.02;102683.00;4918063;28;97635;-72
2022/03/27 01:10:22;;;;;;;1999.90;999.90;;;;;;;7.00;48.26;102683.63;4925765;28;97437;-72
2022/03/27 01:12:51;;;;;;;1999.90;999.90;;;;;;;6.96;48.15;102689.53;4917523;28;97919;-73
2022/03/27 01:15:26;;;;;;;1999.90;999.90;;;;;;;6.91;47.93;102686.59;4902640;28;101832;-73
2022/03/27 01:17:54;;;;;;;1999.90;999.90;;;;;;;6.89;48.17;102684.66;4920651;28;98131;-71
2022/03/27 01:20:30;;;;;;;1999.90;999.90;;;;;;;6.84;48.37;102683.44;4921584;28;98502;-72
2022/03/27 01:22:58;;;;;;;1999.90;999.90;;;;;;;6.83;47.96;102678.97;4922184;28;96976;-70
2022/03/27 01:25:26;;;;;;;1999.90;999.90;;;;;;;6.77;47.69;102684.75;4913618;28;99395;-72
2022/03/27 01:27:53;;;;;;;1999.90;999.90;;;;;;;6.70;48.48;102678.94;4919198;28;97686;-73
2022/03/27 01:30:21;;;;;;;1999.90;999.90;;;;;;;6.63;48.26;102679.34;4914478;28;98066;-73
2022/03/27 01:32:51;;;;;;;1999.90;999.90;;;;;;;6.58;48.58;102675.50;4919428;28;97693;-74
2022/03/27 01:35:19;;;;;;;1999.90;999.90;;;;;;;6.54;48.66;102676.09;4916435;28;101194;-72
2022/03/27 01:37:48;;;;;;;1999.90;999.90;;;;;;;7.04;48.68;102672.41;4919671;28;98020;-72
2022/03/27 01:40:18;;;;;;;1999.90;999.90;;;;;;;6.70;49.53;102671.00;4914122;28;97293;-75
2022/03/27 01:42:46;;;;;;;1999.90;999.90;;;;;;;6.60;49.62;102680.06;4917852;28;97140;-74
2022/03/27 01:45:13;;;;;;;1999.90;999.90;;;;;;;6.56;49.46;102669.19;4918807;28;98705;-74
2022/03/27 01:47:41;;;;;;;1999.90;999.90;;;;;;;6.52;49.33;102669.78;4923011;28;98615;-73
2022/03/27 01:50:09;;;;;;;1999.90;999.90;;;;;;;6.46;49.57;102664.06;4920543;28;96781;-74
2022/03/27 01:52:38;;;;;;;1999.90;999.90;;;;;;;6.40;49.52;102664.56;4920382;28;98007;-71
2022/03/27 01:55:09;;;;;;;1999.90;999.90;;;;;;;6.36;49.38;102669.56;4918793;28;98230;-72
2022/03/27 01:57:36;;;;;;;1999.90;999.90;;;;;;;6.33;49.65;102669.34;4920252;28;100730;-72
2022/03/27 02:00:06;;;;;;;1999.90;999.90;;;;;;;6.30;49.34;102674.44;4917782;28;98543;-70
2022/03/27 02:02:40;;;;;;;1999.90;999.90;;;;;;;6.24;49.49;102672.25;4917330;28;98188;-72
2022/03/27 02:05:09;;;;;;;1999.90;999.90;;;;;;;6.23;49.51;102675.72;4915770;28;96838;-72
2022/03/27 02:07:38;;;;;;;1999.90;999.90;;;;;;;6.21;49.30;102667.66;4917674;28;99269;-70
2022/03/27 02:10:09;;;;;;;1999.90;999.90;;;;;;;6.19;49.61;102671.03;4915864;28;97580;-69
2022/03/27 02:12:36;;;;;;;1999.90;999.90;;;;;;;6.15;49.78;102675.19;4920223;28;97192;-72
2022/03/27 02:15:05;;;;;;;1999.90;999.90;;;;;;;6.13;49.77;102675.88;4914645;28;99153;-71
2022/03/27 02:17:32;;;;;;;1999.90;999.90;;;;;;;6.08;49.75;102672.94;4917271;28;97754;-72
2022/03/27 02:20:06;;;;;;;1999.90;999.90;;;;;;;6.03;49.83;102682.25;4917684;28;97067;-72
2022/03/27 02:22:34;;;;;;;1999.90;999.90;;;;;;;6.01;49.51;102680.31;4918098;28;98330;-72
2022/03/27 02:25:03;;;;;;;1999.90;999.90;;;;;;;5.98;49.87;102678.38;4919454;28;98795;-71
2022/03/27 02:27:32;;;;;;;1999.90;999.90;;;;;;;5.94;49.71;102684.25;4922121;28;98833;-70
2022/03/27 02:30:00;;;;;;;1999.90;999.90;;;;;;;5.92;49.63;102679.69;4924814;28;97914;-73
2022/03/27 02:32:27;;;;;;;1999.90;999.90;;;;;;;5.91;50.06;102691.03;4926175;28;97626;-72
2022/03/27 02:34:55;;;;;;;1999.90;999.90;;;;;;;5.89;49.74;102688.28;4925272;28;97748;-71
2022/03/27 02:37:23;;;;;;;1999.90;999.90;;;;;;;5.89;49.59;102690.94;4924176;28;98740;-70
2022/03/27 02:39:51;;;;;;;1999.90;999.90;;;;;;;5.91;49.87;102694.59;4924130;28;97248;-71
2022/03/27 02:42:18;;;;;;;1999.90;999.90;;;;;;;5.91;49.88;102696.31;4931914;28;98092;-71
2022/03/27 02:44:47;;;;;;;1999.90;999.90;;;;;;;6.00;49.66;102689.03;4934584;28;97563;-72
2022/03/27 02:47:16;;;;;;;1999.90;999.90;;;;;;;5.88;49.93;102691.75;4919713;28;97589;-72
2022/03/27 02:49:43;;;;;;;1999.90;999.90;;;;;;;5.84;50.18;102689.72;4921345;28;96876;-71
2022/03/27 02:52:11;;;;;;;1999.90;999.90;;;;;;;5.81;50.10;102702.69;4917077;28;97048;-73
2022/03/27 02:54:39;;;;;;;1999.90;999.90;;;;;;;5.79;50.07;102696.41;4894833;28;100711;-71
2022/03/27 02:57:07;;;;;;;1999.90;999.90;;;;;;;5.77;50.48;102700.66;4914172;28;101100;-71
2022/03/27 02:59:35;;;;;;;1999.90;999.90;;;;;;;5.76;50.12;102698.81;4918365;28;98778;-72
2022/03/27 03:02:04;;;;;;;1999.90;999.90;;;;;;;5.77;50.14;102707.66;4910915;28;98816;-71
2022/03/27 03:04:34;;;;;;;1999.90;999.90;;;;;;;5.75;50.15;102701.34;4917499;28;97826;-74
2022/03/27 03:07:02;;;;;;;1999.90;999.90;;;;;;;5.72;50.34;102698.50;4919037;28;98900;-71
2022/03/27 03:09:30;;;;;;;1999.90;999.90;;;;;;;5.70;50.44;102697.47;4919266;28;97221;-71
2022/03/27 03:11:58;;;;;;;1999.90;999.90;;;;;;;5.67;50.51;102706.06;4915701;28;99336;-71
2022/03/27 03:14:26;;;;;;;1999.90;999.90;;;;;;;5.67;50.25;102690.22;4920929;28;97746;-70
2022/03/27 03:16:54;;;;;;;1999.90;999.90;;;;;;;5.66;50.42;102696.34;4919773;28;97638;-72
2022/03/27 03:19:24;;;;;;;1999.90;999.90;;;;;;;5.65;50.54;102702.41;4918528;28;98657;-73
2022/03/27 03:21:52;;;;;;;1999.90;999.90;;;;;;;5.64;50.51;102711.16;4919437;28;98550;-74
2022/03/27 03:24:19;;;;;;;1999.90;999.90;;;;;;;5.65;50.51;102707.69;4915192;28;99370;-71
2022/03/27 03:26:49;;;;;;;1999.90;999.90;;;;;;;5.67;50.20;102711.38;4933488;28;99549;-71
2022/03/27 03:29:17;;;;;;;1999.90;999.90;;;;;;;5.66;50.46;102708.63;4916903;28;97496;-73
2022/03/27 03:31:44;;;;;;;1999.90;999.90;;;;;;;5.62;50.73;102710.13;4917347;28;98464;-73
2022/03/27 03:34:12;;;;;;;1999.90;999.90;;;;;;;5.62;50.78;102712.75;4916262;28;99316;-71
2022/03/27 03:36:41;;;;;;;1999.90;999.90;;;;;;;5.64;50.28;102705.88;4919077;28;97733;-73
2022/03/27 03:39:09;;;;;;;1999.90;999.90;;;;;;;5.65;50.78;102707.69;4912137;28;99309;-72
2022/03/27 03:41:37;;;;;;;1999.90;999.90;;;;;;;5.65;50.46;102712.97;4914478;28;97534;-72
2022/03/27 03:44:23;;;;;;;1999.90;999.90;;;;;;;5.62;50.65;102712.75;4914268;28;99777;-71
2022/03/27 03:46:51;;;;;;;1999.90;999.90;;;;;;;5.62;50.43;102706.56;4914624;28;99232;-70
2022/03/27 03:49:20;;;;;;;1999.90;999.90;;;;;;;5.63;50.34;102711.94;4916974;28;98057;-73
2022/03/27 03:51:49;;;;;;;1999.90;999.90;;;;;;;5.61;50.39;102713.56;4914304;28;97132;-73
2022/03/27 03:54:17;;;;;;;1999.90;999.90;;;;;;;5.59;50.87;102712.56;4912627;28;100022;-71
2022/03/27 03:56:45;;;;;;;1999.90;999.90;;;;;;;5.56;50.55;102707.03;4917782;28;97631;-71
2022/03/27 03:59:12;;;;;;;1999.90;999.90;;;;;;;5.55;50.52;102714.84;4916713;28;96935;-71
2022/03/27 04:01:56;;;;;;;1999.90;999.90;;;;;;;5.51;50.63;102716.34;4908766;28;98707;-73
2022/03/27 04:04:24;;;;;;;1999.90;999.90;;;;;;;5.49;50.78;102725.88;4908761;28;99185;-71
2022/03/27 04:06:53;;;;;;;1999.90;999.90;;;;;;;5.47;50.67;102711.66;4912626;28;99533;-71
2022/03/27 04:09:21;;;;;;;1999.90;999.90;;;;;;;5.98;50.98;102715.38;4916019;28;97153;-71
2022/03/27 04:11:49;;;;;;;1999.90;999.90;;;;;;;5.64;51.58;102721.72;4924669;28;97283;-73
2022/03/27 04:14:17;;;;;;;1999.90;999.90;;;;;;;5.53;51.64;102720.03;4918185;28;98457;-71
2022/03/27 04:16:45;;;;;;;1999.90;999.90;;;;;;;5.45;52.10;102715.91;4929361;28;97463;-73
2022/03/27 04:19:13;;;;;;;1999.90;999.90;;;;;;;5.41;51.70;102718.22;4918530;28;97617;-72
2022/03/27 04:21:41;;;;;;;1999.90;999.90;;;;;;;5.92;51.93;102714.94;4914743;28;97559;-71
2022/03/27 04:24:10;;;;;;;1999.90;999.90;;;;;;;6.11;51.88;102710.13;4917255;28;97502;-71
2022/03/27 04:26:40;;;;;;;1999.90;999.90;;;;;;;5.69;52.75;102720.31;4918556;28;99493;-71
2022/03/27 04:29:10;;;;;;;1999.90;999.90;;;;;;;5.54;52.55;102715.66;4917017;28;97250;-74
2022/03/27 04:31:39;;;;;;;1999.90;999.90;;;;;;;5.44;52.73;102711.44;4915162;28;97819;-71
2022/03/27 04:34:07;;;;;;;1999.90;999.90;;;;;;;5.36;52.78;102716.97;4913110;28;98746;-71
2022/03/27 04:36:35;;;;;;;1999.90;999.90;;;;;;;5.30;52.57;102721.81;4916976;28;98370;-73
2022/03/27 04:39:04;;;;;;;1999.90;999.90;;;;;;;5.24;52.78;102722.28;4916137;28;97413;-71
2022/03/27 04:41:34;;;;;;;1999.90;999.90;;;;;;;5.18;52.50;102721.81;4913269;28;97022;-72
2022/03/27 04:44:01;;;;;;;1999.90;999.90;;;;;;;5.12;52.57;102716.06;4914405;28;97845;-72
2022/03/27 04:46:29;;;;;;;1999.90;999.90;;;;;;;5.07;52.68;102722.75;4915836;28;97966;-72
2022/03/27 04:48:57;;;;;;;1999.90;999.90;;;;;;;5.01;52.66;102722.28;4918881;28;97387;-72
2022/03/27 04:51:25;;;;;;;1999.90;999.90;;;;;;;4.96;52.72;102719.28;4916885;28;100690;-74
2022/03/27 04:53:53;;;;;;;1999.90;999.90;;;;;;;4.91;52.86;102712.75;4919691;28;97960;-71
2022/03/27 04:56:20;;;;;;;1999.90;999.90;;;;;;;4.87;52.75;102712.38;4920827;28;99455;-72
2022/03/27 04:58:49;;;;;;;1999.90;999.90;;;;;;;4.81;52.86;102707.56;4920875;28;96942;-70
2022/03/27 05:01:17;;;;;;;1999.90;999.90;;;;;;;4.77;52.70;102712.53;4921191;28;97403;-73
2022/03/27 05:03:45;;;;;;;1999.90;999.90;;;;;;;4.72;52.93;102706.88;4915630;28;99902;-70
2022/03/27 05:06:13;;;;;;;1999.90;999.90;;;;;;;4.69;52.83;102708.38;4915559;28;100637;-70
2022/03/27 05:08:41;;;;;;;1999.90;999.90;;;;;;;4.64;52.70;102701.84;4909237;28;97149;-73
2022/03/27 05:11:08;;;;;;;1999.90;999.90;;;;;;;4.61;52.87;102713.06;4916613;28;97825;-72
2022/03/27 05:13:36;;;;;;;1999.90;999.90;;;;;;;4.56;52.84;102711.81;4918882;28;98744;-71
2022/03/27 05:16:06;;;;;;;1999.90;999.90;;;;;;;4.53;52.84;102708.03;4920660;28;98070;-72
2022/03/27 05:18:34;;;;;;;1999.90;999.90;;;;;;;4.50;53.05;102702.53;4921369;28;97436;-70
2022/03/27 05:21:01;;;;;;;1999.90;999.90;;;;;;;4.46;52.98;102708.38;4921851;28;97599;-71
2022/03/27 05:23:29;;;;;;;1999.90;999.90;;;;;;;4.43;52.79;102710.75;4916850;28;100783;-70
2022/03/27 05:25:57;;;;;;;1999.90;999.90;;;;;;;4.40;53.03;102705.25;4918116;28;98420;-71
2022/03/27 05:28:24;;;;;;;1999.90;999.90;;;;;;;4.94;52.82;102714.69;4916157;28;97960;-72
2022/03/27 05:30:52;;;;;;;1999.90;999.90;;;;;;;4.58;53.27;102722.47;4917902;28;98666;-70
2022/03/27 05:33:21;;;;;;;1999.90;999.90;;;;;;;5.02;52.96;102716.19;4916185;28;98194;-70
2022/03/27 05:35:49;;;;;;;1999.90;999.90;;;;;;;4.63;53.63;102721.09;4917628;28;101242;-70
2022/03/27 05:38:17;;;;;;;1999.90;999.90;;;;;;;4.46;53.81;102717.19;4920429;28;98155;-71
2022/03/27 05:40:45;;;;;;;1999.90;999.90;;;;;;;4.37;53.82;102713.81;4916914;28;98992;-71
2022/03/27 05:43:13;;;;;;;1999.90;999.90;;;;;;;4.27;53.86;102703.41;4911869;28;97659;-73
2022/03/27 05:45:41;;;;;;;1999.90;999.90;;;;;;;4.20;53.75;102712.56;4913000;28;101125;-73
2022/03/27 05:48:09;;;;;;;1999.90;999.90;;;;;;;4.14;53.84;102722.63;4916839;28;97327;-71
2022/03/27 05:50:38;;;;;;;1999.90;999.90;;;;;;;4.08;53.91;102718.56;4920640;28;96935;-72
2022/03/27 05:53:06;;;;;;;1999.90;999.90;;;;;;;4.02;53.47;102721.63;4924374;28;97778;-74
2022/03/27 05:55:33;;;;;;;1999.90;999.90;;;;;;;3.98;54.10;102729.19;4926381;28;98217;-73
2022/03/27 05:58:01;;;;;;;1999.90;999.90;;;;;;;3.93;53.70;102731.44;4927293;28;97967;-77
2022/03/27 06:00:29;;;;;;;1999.90;999.90;;;;;;;3.87;53.81;102720.47;4926466;28;97037;-74
2022/03/27 06:02:57;;;;;;;1999.90;999.90;;;;;;;3.83;54.13;102717.44;4917870;28;99776;-76
2022/03/27 06:05:25;;;;;;;1999.90;999.90;;;;;;;3.77;53.85;102723.16;4911399;28;99432;-73
2022/03/27 06:07:55;;;;;;;1999.90;999.90;;;;;;;3.73;53.80;102731.59;4912167;28;97790;-69
2022/03/27 06:10:24;;;;;;;1999.90;999.90;;;;;;;3.68;54.03;102726.75;4914433;28;97699;-67
2022/03/27 06:12:53;;;;;;;1999.90;999.90;;;;;;;3.63;54.14;102730.72;4911669;28;97787;-70
2022/03/27 06:15:22;;;;;;;1999.90;999.90;;;;;;;3.62;53.79;102736.78;4910401;28;98837;-73
2022/03/27 06:17:51;;;;;;;1999.90;999.90;;;;;;;3.60;54.13;102730.47;4911471;28;98981;-75
2022/03/27 06:20:20;;;;;;;1999.90;999.90;;;;;;;3.57;54.07;102731.13;4912809;28;96896;-73
2022/03/27 06:22:48;;;;;;;1999.90;999.90;;;;;;;3.54;53.76;102724.72;4913661;28;97805;-73
2022/03/27 06:25:20;;;;;;;1999.90;999.90;;;;;;;3.51;53.95;102733.31;4911682;28;97585;-74
2022/03/27 06:27:49;;;;;;;1999.90;999.90;;;;;;;3.50;53.83;102733.16;4912319;28;97881;-73
2022/03/27 06:30:19;;;;;;;1999.90;999.90;;;;;;;3.51;54.29;102742.91;4909848;28;97992;-72
2022/03/27 06:32:47;;;;;;;1999.90;999.90;;;;;;;3.51;54.02;102732.38;4911432;28;97458;-72
2022/03/27 06:35:17;;;;;;;1999.90;999.90;;;;;;;3.53;54.13;102734.31;4912594;28;98058;-71
2022/03/27 06:37:44;;;;;;;1999.90;999.90;;;;;;;3.55;53.79;102734.47;4914180;28;96863;-73
2022/03/27 06:40:14;;;;;;;1999.90;999.90;;;;;;;3.55;53.60;102740.63;4910782;28;97277;-71
2022/03/27 06:42:45;;;;;;;1999.90;999.90;;;;;;;3.55;53.91;102739.72;4912361;28;98732;-73
2022/03/27 06:45:14;;;;;;;1999.90;999.90;;;;;;;3.59;53.53;102733.88;4912174;28;98596;-73
2022/03/27 06:47:43;;;;;;;1999.90;999.90;;;;;;;3.62;53.69;102735.09;4912340;28;99215;-72
2022/03/27 06:50:12;;;;;;;1999.90;999.90;;;;;;;3.64;53.49;102733.47;4911240;28;98702;-72
2022/03/27 06:52:40;;;;;;;1999.90;999.90;;;;;;;3.70;53.75;102734.00;4908581;28;98423;-75
2022/03/27 06:55:09;;;;;;;1999.90;999.90;;;;;;;3.73;53.60;102733.34;4909661;28;97969;-74
2022/03/27 06:57:38;;;;;;;1999.90;999.90;;;;;;;3.74;52.90;102741.34;4910771;28;98195;-74
2022/03/27 07:03:06;;;;;;;1999.90;999.90;;;;;;;3.71;53.18;102743.75;4923039;28;100092;-73
2022/03/27 07:05:36;;;;;;;1999.90;999.90;;;;;;;3.64;53.24;102745.72;4914573;28;100570;-73
2022/03/27 07:08:05;;;;;;;1999.90;999.90;;;;;;;3.57;53.82;102744.28;4914772;28;99260;-71
2022/03/27 07:10:33;;;;;;;1999.90;999.90;;;;;;;3.55;53.30;102756.41;4916659;28;97516;-74
2022/03/27 07:13:01;;;;;;;1999.90;999.90;;;;;;;3.56;53.64;102758.28;4913564;28;100865;-71
2022/03/27 07:15:30;;;;;;;1999.90;999.90;;;;;;;3.57;53.30;102760.09;4915167;28;98046;-71
2022/03/27 07:17:59;;;;;;;1999.90;999.90;;;;;;;3.58;53.42;102756.69;4918102;28;99343;-73
2022/03/27 07:20:30;;;;;;;1999.90;999.90;;;;;;;3.60;53.46;102760.38;4917984;28;97340;-72
2022/03/27 07:23:00;;;;;;;1999.90;999.90;;;;;;;3.63;53.73;102768.50;4917704;28;99396;-73
2022/03/27 07:25:29;;;;;;;1999.90;999.90;;;;;;;3.65;53.53;102766.00;4912975;28;98927;-72
2022/03/27 07:27:57;;;;;;;1999.90;999.90;;;;;;;3.67;53.55;102765.34;4916394;28;97205;-74
2022/03/27 07:30:25;;;;;;;1999.90;999.90;;;;;;;3.72;53.72;102770.97;4912492;28;98193;-70
2022/03/27 07:32:54;;;;;;;1999.90;999.90;;;;;;;3.77;53.79;102767.91;4914607;28;99337;-74
2022/03/27 07:35:22;;;;;;;1999.90;999.90;;;;;;;3.84;53.21;102772.88;4915028;28;100392;-71
2022/03/27 07:37:51;;;;;;;1999.90;999.90;;;;;;;3.90;53.67;102772.44;4914105;28;99500;-74
2022/03/27 07:40:20;;;;;;;1999.90;999.90;;;;;;;3.91;53.73;102783.13;4915360;28;97938;-70
2022/03/27 07:42:50;;;;;;;1999.90;999.90;;;;;;;3.95;53.72;102779.91;4911879;28;100144;-72
2022/03/27 07:45:19;;;;;;;1999.90;999.90;;;;;;;4.01;53.40;102779.47;4914390;28;98086;-72
2022/03/27 07:47:49;;;;;;;1999.90;999.90;;;;;;;4.10;52.99;102782.84;4914460;28;97398;-73
2022/03/27 07:50:19;;;;;;;1999.90;999.90;;;;;;;4.15;52.86;102779.75;4908950;28;97406;-72
2022/03/27 07:52:47;;;;;;;1999.90;999.90;;;;;;;4.20;53.04;102783.72;4913602;28;98986;-72
2022/03/27 07:55:16;;;;;;;1999.90;999.90;;;;;;;4.24;52.82;102782.22;4913200;28;98461;-75
2022/03/27 07:57:44;;;;;;;1999.90;999.90;;;;;;;4.27;52.85;102786.78;4906894;28;97907;-71
2022/03/27 08:00:13;;;;;;;1999.90;999.90;;;;;;;4.34;52.63;102778.56;4907118;28;97923;-73
2022/03/27 08:02:42;;;;;;;1999.90;999.90;;;;;;;4.37;52.80;102781.47;4912027;28;100457;-73
2022/03/27 08:05:11;;;;;;;1999.90;999.90;;;;;;;4.40;52.67;102785.25;4913197;28;100464;-70
2022/03/27 08:07:42;;;;;;;1999.90;999.90;;;;;;;4.43;52.74;102774.00;4916655;28;98090;-75
2022/03/27 08:10:11;;;;;;;1999.90;999.90;;;;;;;4.49;52.72;102777.13;4914610;28;97513;-72
2022/03/27 08:12:38;;;;;;;1999.90;999.90;;;;;;;4.56;52.81;102774.16;4913359;28;98985;-74
2022/03/27 08:15:07;;;;;;;1999.90;999.90;;;;;;;4.65;52.60;102777.50;4910190;28;99225;-71
2022/03/27 08:17:35;;;;;;;1999.90;999.90;;;;;;;4.70;52.66;102779.69;4913109;28;98315;-70
2022/03/27 08:20:04;;;;;;;1999.90;999.90;;;;;;;4.77;52.34;102783.72;4911757;28;98427;-72
2022/03/27 08:22:33;;;;;;;1999.90;999.90;;;;;;;4.83;52.64;102785.09;4908871;28;98113;-72
2022/03/27 08:25:02;;;;;;;1999.90;999.90;;;;;;;4.92;52.28;102784.88;4911072;28;97808;-71
2022/03/27 08:27:31;;;;;;;1999.90;999.90;;;;;;;5.01;52.02;102782.97;4912801;28;97737;-72
2022/03/27 08:29:59;;;;;;;1999.90;999.90;;;;;;;5.06;51.98;102777.22;4917025;28;97710;-74
2022/03/27 08:32:27;;;;;;;1999.90;999.90;;;;;;;5.15;52.04;102779.66;4910857;28;98002;-71
2022/03/27 08:34:55;;;;;;;1999.90;999.90;;;;;;;5.25;52.03;102783.91;4902401;28;100524;-70
2022/03/27 08:37:23;;;;;;;1999.90;999.90;;;;;;;5.33;51.80;102781.03;4915382;28;98966;-71
2022/03/27 08:39:53;;;;;;;1999.90;999.90;;;;;;;5.39;51.56;102778.84;4916733;28;97830;-74
2022/03/27 08:42:22;;;;;;;1999.90;999.90;;;;;;;5.80;52.04;102769.56;4914345;28;98046;-72
2022/03/27 08:44:50;;;;;;;1999.90;999.90;;;;;;;6.06;52.13;102768.78;4912210;28;98724;-72
2022/03/27 08:47:21;;;;;;;1999.90;999.90;;;;;;;5.86;52.33;102769.06;4913765;28;96778;-74
2022/03/27 08:49:54;;;;;;;1999.90;999.90;;;;;;;6.22;52.00;102769.03;4907294;28;98624;-72
2022/03/27 08:52:36;;;;;;;1999.90;999.90;;;;;;;6.01;52.31;102763.13;4908797;28;100253;-73
2022/03/27 08:55:06;;;;;;;1999.90;999.90;;;;;;;6.02;52.24;102764.06;4908995;28;100756;-71
2022/03/27 08:57:51;;;;;;;1999.90;999.90;;;;;;;6.03;52.08;102773.84;4908153;28;99171;-70
2022/03/27 09:00:20;;;;;;;1999.90;999.90;;;;;;;6.06;51.89;102758.19;4905990;28;98120;-70
2022/03/27 09:02:49;;;;;;;1999.90;999.90;;;;;;;6.09;51.88;102763.69;4913326;28;98478;-72
2022/03/27 09:05:20;;;;;;;1999.90;999.90;;;;;;;6.12;51.82;102758.63;4910634;28;98481;-74
2022/03/27 09:07:48;;;;;;;1999.90;999.90;;;;;;;6.13;51.45;102761.38;4905066;28;97770;-71
2022/03/27 09:10:17;;;;;;;1999.90;999.90;;;;;;;6.28;50.99;102755.38;4908585;28;97778;-72
2022/03/27 09:12:47;;;;;;;1999.90;999.90;;;;;;;6.15;51.53;102762.41;4907299;28;101030;-76
2022/03/27 09:15:19;;;;;;;1999.90;999.90;;;;;;;6.16;51.36;102761.59;4911941;28;98680;-76
2022/03/27 09:17:59;;;;;;;1999.90;999.90;;;;;;;6.21;50.98;102752.25;4910017;28;97180;-78
2022/03/27 09:20:34;;;;;;;1999.90;999.90;;;;;;;6.24;50.82;102755.13;4911581;28;97066;-73
2022/03/27 09:23:21;;;;;;;1999.90;999.90;;;;;;;6.29;50.79;102757.22;4905025;28;100093;-76
2022/03/27 09:25:52;;;;;;;1999.90;999.90;;;;;;;6.30;50.67;102756.38;4922184;28;97783;-72
2022/03/27 09:28:30;;;;;;;1999.90;999.90;;;;;;;6.29;50.85;102744.00;4919571;28;97793;-72
2022/03/27 09:30:59;;;;;;;1999.90;999.90;;;;;;;6.31;50.71;102751.19;4919661;28;97091;-73
2022/03/27 09:33:34;;;;;;;1999.90;999.90;;;;;;;6.35;50.71;102753.25;4920938;28;97725;-72
2022/03/27 09:36:07;;;;;;;1999.90;999.90;;;;;;;6.42;50.41;102742.28;4920244;28;98035;-72
2022/03/27 09:38:35;;;;;;;1999.90;999.90;;;;;;;6.54;50.14;102752.81;4916892;28;97203;-72
2022/03/27 09:41:04;;;;;;;1999.90;999.90;;;;;;;6.57;50.10;102750.34;4920318;28;97193;-73
2022/03/27 09:43:33;;;;;;;1999.90;999.90;;;;;;;6.59;49.77;102748.72;4921836;28;97845;-72
2022/03/27 09:46:04;;;;;;;1999.90;999.90;;;;;;;6.62;49.68;102748.94;4921634;28;98518;-70
2022/03/27 09:48:32;;;;;;;1999.90;999.90;;;;;;;6.65;49.83;102746.53;4923418;28;98114;-72
2022/03/27 09:51:01;;;;;;;1999.90;999.90;;;;;;;6.68;49.37;102750.28;4918647;28;97740;-72
2022/03/27 09:53:31;;;;;;;1999.90;999.90;;;;;;;6.73;49.30;102740.94;4918982;28;99789;-70
2022/03/27 09:56:14;;;;;;;1999.90;999.90;;;;;;;6.78;49.30;102738.59;4919776;28;97955;-70
2022/03/27 09:58:45;;;;;;;1999.90;999.90;;;;;;;6.84;49.26;102736.34;4911837;28;98139;-71
2022/03/27 10:01:14;;;;;;;1999.90;999.90;;;;;;;6.87;49.13;102744.53;4913309;28;98110;-71
2022/03/27 10:04:04;;;;;;;1999.90;999.90;;;;;;;6.87;48.92;102736.56;4918106;28;99371;-70
2022/03/27 10:06:34;;;;;;;1999.90;999.90;;;;;;;6.96;48.97;102731.91;4919928;28;98579;-72
2022/03/27 10:09:02;;;;;;;1999.90;999.90;;;;;;;7.01;48.57;102723.44;4922105;28;97918;-72
2022/03/27 10:11:30;;;;;;;1999.90;999.90;;;;;;;7.04;48.35;102718.34;4922849;28;97785;-74
2022/03/27 10:14:00;;;;;;;1999.90;999.90;;;;;;;7.09;48.78;102721.31;4920714;28;99013;-74
2022/03/27 10:16:30;;;;;;;1999.90;999.90;;;;;;;7.14;48.60;102719.88;4921443;28;97387;-74
2022/03/27 10:19:04;;;;;;;1999.90;999.90;;;;;;;7.18;48.65;102706.03;4921041;28;97318;-72
2022/03/27 10:21:33;;;;;;;1999.90;999.90;;;;;;;7.22;48.04;102705.38;4922000;28;98079;-71
2022/03/27 10:24:07;;;;;;;1999.90;999.90;;;;;;;7.26;48.27;102702.13;4919745;28;97614;-71
2022/03/27 10:26:38;;;;;;;1999.90;999.90;;;;;;;7.32;48.14;102705.19;4920105;28;97707;-70
2022/03/27 10:29:09;;;;;;;1999.90;999.90;;;;;;;7.35;48.02;102705.38;4903924;28;97100;-71
2022/03/27 10:31:36;;;;;;;1999.90;999.90;;;;;;;7.38;47.84;102696.72;4923261;28;96997;-70
2022/03/27 10:34:06;;;;;;;1999.90;999.90;;;;;;;7.40;47.87;102698.63;4918588;28;100605;-73
2022/03/27 10:36:43;;;;;;;1999.90;999.90;;;;;;;7.47;47.95;102700.00;4904284;28;98944;-71
2022/03/27 10:39:15;;;;;;;1999.90;999.90;;;;;;;7.52;47.55;102688.88;4920772;28;97272;-69
2022/03/27 10:41:46;;;;;;;1999.90;999.90;;;;;;;7.55;47.54;102691.69;4918930;28;98070;-69
2022/03/27 10:44:25;;;;;;;1999.90;999.90;;;;;;;7.58;47.31;102689.28;4920510;28;98968;-69
2022/03/27 10:47:13;;;;;;;1999.90;999.90;;;;;;;7.61;47.69;102684.16;4919429;28;97738;-72
2022/03/27 10:49:41;;;;;;;1999.90;999.90;;;;;;;7.70;47.23;102684.72;4918141;28;97373;-69
2022/03/27 10:52:09;;;;;;;1999.90;999.90;;;;;;;7.78;47.23;102678.16;4916989;28;98043;-72
2022/03/27 10:54:58;;;;;;;1999.90;999.90;;;;;;;7.84;47.07;102678.56;4918721;28;100414;-70
2022/03/27 10:57:30;;;;;;;1999.90;999.90;;;;;;;7.90;46.73;102672.72;4914940;28;98847;-71
2022/03/27 11:00:00;;;;;;;1999.90;999.90;;;;;;;7.97;46.75;102673.19;4915287;28;97690;-70
2022/03/27 11:02:44;;;;;;;1999.90;999.90;;;;;;;8.04;46.93;102669.16;4927601;28;97364;-70
2022/03/27 11:05:50;;;;;;;1999.90;999.90;;;;;;;8.14;46.55;102669.84;4917609;28;100369;-69
2022/03/27 11:08:46;;;;;;;1999.90;999.90;;;;;;;8.21;46.51;102666.75;4920335;28;97250;-71